createdAt,value
2022-09-03T00:00:11.873Z,4.63
2022-09-03T00:02:45.651Z,3.72
2022-09-03T00:05:19.041Z,4.28
2022-09-03T00:07:50.486Z,4.25
2022-09-03T00:10:23.189Z,4.05
2022-09-03T00:12:53.266Z,4.60
2022-09-03T00:15:22.179Z,5.03
2022-09-03T00:17:53.111Z,4.63
2022-09-03T00:20:26.118Z,4.03
2022-09-03T00:22:55.237Z,4.00
2022-09-03T00:25:26.685Z,4.38
2022-09-03T00:27:56.200Z,3.90
2022-09-03T00:30:24.807Z,4.68
2022-09-03T00:32:55.791Z,4.53
2022-09-03T00:35:27.950Z,4.32
2022-09-03T00:37:56.441Z,3.60
2022-09-03T00:40:33.107Z,3.60
2022-09-03T00:43:05.313Z,4.30
2022-09-03T00:45:35.006Z,4.07
2022-09-03T00:48:07.977Z,4.35
2022-09-03T00:50:42.653Z,4.50
2022-09-03T00:53:14.752Z,3.80
2022-09-03T00:55:47.681Z,4.28
2022-09-03T00:58:22.674Z,4.57
2022-09-03T01:00:52.946Z,4.20
2022-09-03T01:03:25.230Z,4.70
2022-09-03T01:06:06.210Z,4.47
2022-09-03T01:08:50.987Z,3.65
2022-09-03T01:11:26.853Z,4.25
2022-09-03T01:13:57.921Z,3.90
2022-09-03T01:16:29.104Z,3.60
2022-09-03T01:19:02.806Z,3.88
2022-09-03T01:21:47.711Z,3.70
2022-09-03T01:24:29.978Z,3.95
2022-09-03T01:27:05.902Z,3.80
2022-09-03T01:29:39.700Z,4.28
2022-09-03T01:32:10.915Z,4.22
2022-09-03T01:34:47.258Z,3.85
2022-09-03T01:37:20.004Z,3.83
2022-09-03T01:39:54.297Z,4.65
2022-09-03T01:42:25.839Z,4.28
2022-09-03T01:45:06.455Z,4.05
2022-09-03T01:47:39.381Z,4.03
2022-09-03T01:50:11.473Z,3.72
2022-09-03T01:52:45.028Z,4.50
2022-09-03T01:55:20.098Z,4.18
2022-09-03T01:57:50.289Z,3.80
2022-09-03T02:00:20.897Z,4.88
2022-09-03T02:02:51.447Z,3.63
2022-09-03T02:05:20.565Z,4.65
2022-09-03T02:07:51.911Z,4.00
2022-09-03T02:10:20.640Z,3.90
2022-09-03T02:12:50.674Z,3.85
2022-09-03T02:15:21.480Z,4.65
2022-09-03T02:17:50.844Z,4.82
2022-09-03T02:20:21.239Z,4.82
2022-09-03T02:22:49.716Z,4.88
2022-09-03T02:25:17.882Z,4.50
2022-09-03T02:27:46.766Z,4.22
2022-09-03T02:30:14.999Z,4.22
2022-09-03T02:32:44.128Z,3.67
2022-09-03T02:35:13.430Z,4.32
2022-09-03T02:37:41.747Z,4.90
2022-09-03T02:40:11.116Z,4.53
2022-09-03T02:42:39.150Z,4.47
2022-09-03T02:45:11.659Z,3.92
2022-09-03T02:47:41.916Z,4.13
2022-09-03T02:50:11.644Z,4.15
2022-09-03T02:52:39.439Z,5.32
2022-09-03T02:55:08.243Z,4.25
2022-09-03T02:57:36.006Z,4.53
2022-09-03T03:00:04.497Z,4.68
2022-09-03T03:02:32.250Z,5.00
2022-09-03T03:05:00.022Z,4.20
2022-09-03T03:07:29.315Z,4.28
2022-09-03T03:09:57.335Z,4.63
2022-09-03T03:12:25.307Z,4.82
2022-09-03T03:14:53.065Z,4.20
2022-09-03T03:17:20.825Z,5.22
2022-09-03T03:19:50.406Z,5.07
2022-09-03T03:22:18.867Z,4.95
2022-09-03T03:24:50.511Z,5.47
2022-09-03T03:27:19.022Z,4.80
2022-09-03T03:29:47.011Z,4.35
2022-09-03T03:32:14.902Z,4.10
2022-09-03T03:34:42.711Z,4.70
2022-09-03T03:37:10.456Z,4.20
2022-09-03T03:39:38.434Z,4.75
2022-09-03T03:42:07.766Z,5.32
2022-09-03T03:44:35.534Z,4.72
2022-09-03T03:47:05.989Z,5.10
2022-09-03T03:49:33.923Z,4.30
2022-09-03T03:52:03.233Z,4.93
2022-09-03T03:54:31.097Z,4.88
2022-09-03T03:56:58.767Z,4.40
2022-09-03T03:59:28.001Z,4.75
2022-09-03T04:01:55.861Z,4.53
2022-09-03T04:04:23.657Z,4.97
2022-09-03T04:06:51.482Z,4.55
2022-09-03T04:11:46.804Z,4.97
2022-09-03T04:14:15.432Z,5.45
2022-09-03T04:16:46.881Z,5.90
2022-09-03T04:19:14.868Z,8.80
2022-09-03T04:21:42.784Z,5.28
2022-09-03T04:24:10.753Z,6.75
2022-09-03T04:26:39.019Z,5.63
2022-09-03T04:29:07.686Z,5.70
2022-09-03T04:31:36.228Z,5.13
2022-09-03T04:34:06.594Z,7.93
2022-09-03T04:36:35.086Z,7.72
2022-09-03T04:39:03.206Z,8.93
2022-09-03T04:41:31.641Z,6.72
2022-09-03T04:43:59.983Z,6.22
2022-09-03T04:46:33.663Z,5.25
2022-09-03T04:49:01.994Z,6.18
2022-09-03T04:51:31.695Z,4.95
2022-09-03T04:54:00.310Z,6.50
2022-09-03T04:56:28.993Z,6.68
2022-09-03T04:58:57.867Z,5.82
2022-09-03T05:01:26.719Z,5.55
2022-09-03T05:03:54.949Z,9.00
2022-09-03T05:06:22.731Z,6.95
2022-09-03T05:08:52.026Z,5.30
2022-09-03T05:11:19.997Z,11.13
2022-09-03T05:13:49.273Z,7.28
2022-09-03T05:16:18.036Z,5.32
2022-09-03T05:18:46.972Z,5.80
2022-09-03T05:21:15.675Z,5.85
2022-09-03T05:23:44.225Z,4.75
2022-09-03T05:26:14.538Z,5.47
2022-09-03T05:28:42.933Z,5.63
2022-09-03T05:31:12.340Z,5.50
2022-09-03T05:33:42.145Z,5.68
2022-09-03T05:36:11.070Z,5.18
2022-09-03T05:38:40.014Z,5.28
2022-09-03T05:41:08.649Z,4.93
2022-09-03T05:43:38.448Z,5.72
2022-09-03T05:46:07.541Z,5.38
2022-09-03T05:48:35.934Z,5.07
2022-09-03T05:51:05.087Z,5.40
2022-09-03T05:53:34.922Z,4.65
2022-09-03T05:56:03.630Z,5.50
2022-09-03T05:58:31.766Z,5.60
2022-09-03T06:01:01.243Z,6.40
2022-09-03T06:03:29.412Z,6.07
2022-09-03T06:05:57.567Z,6.00
2022-09-03T06:08:26.493Z,5.97
2022-09-03T06:10:58.820Z,7.60
2022-09-03T06:13:26.612Z,6.45
2022-09-03T06:15:57.630Z,6.32
2022-09-03T06:18:30.375Z,5.82
2022-09-03T06:20:59.141Z,6.47
2022-09-03T06:23:27.343Z,6.45
2022-09-03T06:26:05.253Z,6.50
2022-09-03T06:28:34.989Z,5.75
2022-09-03T06:31:03.506Z,6.43
2022-09-03T06:33:33.522Z,7.28
2022-09-03T06:36:04.611Z,7.00
2022-09-03T06:38:36.857Z,7.13
2022-09-03T06:41:05.615Z,8.48
2022-09-03T06:43:34.950Z,8.48
2022-09-03T06:46:03.611Z,8.20
2022-09-03T06:48:33.688Z,6.25
2022-09-03T06:51:02.610Z,7.40
2022-09-03T06:53:32.079Z,7.28
2022-09-03T06:56:01.790Z,6.95
2022-09-03T06:58:30.264Z,6.38
2022-09-03T07:01:03.347Z,5.03
2022-09-03T07:03:32.598Z,5.40
2022-09-03T07:06:05.194Z,5.43
2022-09-03T07:08:33.455Z,4.32
2022-09-03T07:11:01.421Z,4.10
2022-09-03T07:13:29.451Z,4.60
2022-09-03T07:16:01.537Z,3.97
2022-09-03T07:18:29.353Z,4.43
2022-09-03T07:21:01.437Z,3.63
2022-09-03T07:23:29.962Z,3.95
2022-09-03T07:25:58.348Z,3.58
2022-09-03T07:28:26.466Z,3.53
2022-09-03T07:30:54.576Z,3.70
2022-09-03T07:33:22.525Z,3.20
2022-09-03T07:35:50.321Z,3.92
2022-09-03T07:38:20.312Z,3.20
2022-09-03T07:40:48.365Z,3.55
2022-09-03T07:43:16.804Z,3.30
2022-09-03T07:45:45.840Z,3.50
2022-09-03T07:48:13.847Z,3.72
2022-09-03T07:50:41.640Z,3.55
2022-09-03T07:53:09.499Z,3.20
2022-09-03T07:55:38.970Z,3.47
2022-09-03T07:58:07.887Z,3.42
